Time;durP1;ratioP1;P1;durP2;ratioP2;P2;SDS_P1;SDS_P2;PMS_P1;PMS_P2;Temp;Humidity;BMP_temperature;BMP_pressure;BME280_temperature;BME280_humidity;BME280_pressure;Samples;Min_cycle;Max_cycle;Signal;HPM_P1;HPM_P2
2022/04/22 00:02:25;;;;;;;;;;;;;;;;;;5022244;28;19926;-58
2022/04/22 00:04:50;;;;;;;;;;;;;;;;;;5035099;28;19923;-58
2022/04/22 00:07:15;;;;;;;;;;;;;;;;;;5028699;28;19920;-58
2022/04/22 00:09:41;;;;;;;;;;;;;;;;;;5027404;28;19917;-59
2022/04/22 00:12:06;;;;;;;;;;;;;;;;;;5022326;28;19913;-58
2022/04/22 00:14:32;;;;;;;;;;;;;;;;;;5025655;28;19917;-59
2022/04/22 00:16:57;;;;;;;;;;;;;;;;;;5025994;28;19916;-59
2022/04/22 00:19:22;;;;;;;;;;;;;;;;;;5026942;28;19935;-59
2022/04/22 00:21:48;;;;;;;;;;;;;;;;;;5026281;28;19921;-62
2022/04/22 00:24:14;;;;;;;;;;;;;;;;;;5026360;28;19926;-59
2022/04/22 00:26:40;;;;;;;;;;;;;;;;;;5017914;28;20309;-57
2022/04/22 00:29:05;;;;;;;;;;;;;;;;;;5018068;28;20027;-58
2022/04/22 00:31:30;;;;;;;;;;;;;;;;;;5021503;28;20371;-59
2022/04/22 00:33:55;;;;;;;;;;;;;;;;;;5020335;28;19923;-57
2022/04/22 00:36:21;;;;;;;;;;;;;;;;;;5026985;28;20357;-59
2022/04/22 00:38:46;;;;;;;;;;;;;;;;;;5032982;28;20026;-59
2022/04/22 00:41:11;;;;;;;;;;;;;;;;;;5032647;28;19929;-58
2022/04/22 00:43:41;;;;;;;;;;;;;;;;;;5023958;28;19921;-59
2022/04/22 00:46:07;;;;;;;;;;;;;;;;;;5029059;28;19921;-57
2022/04/22 00:48:32;;;;;;;;;;;;;;;;;;5033085;28;19963;-57
2022/04/22 00:50:57;;;;;;;;;;;;;;;;;;5022855;28;19917;-58
2022/04/22 00:53:23;;;;;;;;;;;;;;;;;;5022010;28;19917;-57
2022/04/22 00:55:48;;;;;;;;;;;;;;;;;;5024800;28;19917;-59
2022/04/22 00:58:14;;;;;;;;;;;;;;;;;;5024694;28;20403;-57
2022/04/22 01:00:40;;;;;;;;;;;;;;;;;;5024565;28;19972;-57
2022/04/22 01:03:05;;;;;;;;;;;;;;;;;;5027256;28;20386;-58
2022/04/22 01:11:00;;;;;;;;;;;;;;;;;;5026579;28;19964;-58
2022/04/22 01:13:26;;;;;;;;;;;;;;;;;;5025730;28;19917;-58
2022/04/22 01:15:51;;;;;;;;;;;;;;;;;;5024653;28;19917;-58
2022/04/22 01:18:17;;;;;;;;;;;;;;;;;;5019377;28;19917;-59
2022/04/22 01:20:42;;;;;;;;;;;;;;;;;;5023598;28;19918;-58
2022/04/22 01:23:08;;;;;;;;;;;;;;;;;;5019950;28;19917;-59
2022/04/22 01:25:33;;;;;;;;;;;;;;;;;;5026978;28;19922;-58
2022/04/22 01:27:59;;;;;;;;;;;;;;;;;;5020931;28;19917;-57
2022/04/22 01:30:24;;;;;;;;;;;;;;;;;;5021616;28;20016;-58
2022/04/22 01:32:57;;;;;;;;;;;;;;;;;;5014224;28;19945;-58
2022/04/22 01:35:23;;;;;;;;;;;;;;;;;;5022875;28;19936;-58
2022/04/22 01:37:48;;;;;;;;;;;;;;;;;;5031507;28;20011;-58
2022/04/22 01:40:14;;;;;;;;;;;;;;;;;;5032122;28;20019;-58
2022/04/22 01:42:40;;;;;;;;;;;;;;;;;;5026367;28;19921;-58
2022/04/22 01:45:06;;;;;;;;;;;;;;;;;;5029435;28;19917;-58
2022/04/22 01:47:31;;;;;;;;;;;;;;;;;;5027159;28;19995;-58
2022/04/22 01:49:57;;;;;;;;;;;;;;;;;;5026023;28;19937;-58
2022/04/22 01:52:23;;;;;;;;;;;;;;;;;;5023855;28;19917;-59
2022/04/22 01:54:52;;;;;;;;;;;;;;;;;;5028779;28;19952;-58
2022/04/22 01:57:18;;;;;;;;;;;;;;;;;;5027451;28;20536;-59
2022/04/22 01:59:44;;;;;;;;;;;;;;;;;;5029063;28;19925;-59
2022/04/22 02:02:09;;;;;;;;;;;;;;;;;;5025855;28;19975;-58
2022/04/22 02:04:35;;;;;;;;;;;;;;;;;;5027734;28;20275;-58
2022/04/22 02:07:00;;;;;;;;;;;;;;;;;;5039521;28;19917;-56
2022/04/22 02:09:25;;;;;;;;;;;;;;;;;;5027132;28;20420;-58
2022/04/22 02:11:51;;;;;;;;;;;;;;;;;;5025939;28;19940;-58
2022/04/22 02:14:16;;;;;;;;;;;;;;;;;;5024425;28;19917;-58
2022/04/22 02:16:41;;;;;;;;;;;;;;;;;;5024257;28;19918;-58
2022/04/22 02:19:07;;;;;;;;;;;;;;;;;;5024021;28;19917;-59
2022/04/22 02:21:32;;;;;;;;;;;;;;;;;;5018952;28;19921;-57
2022/04/22 02:23:57;;;;;;;;;;;;;;;;;;5018287;28;20363;-59
2022/04/22 02:26:22;;;;;;;;;;;;;;;;;;5019899;28;20016;-57
2022/04/22 02:28:48;;;;;;;;;;;;;;;;;;5032446;28;20410;-58
2022/04/22 02:31:13;;;;;;;;;;;;;;;;;;5033629;28;19917;-59
2022/04/22 02:33:39;;;;;;;;;;;;;;;;;;5033294;28;19917;-57
2022/04/22 02:36:06;;;;;;;;;;;;;;;;;;5032711;28;19995;-56
2022/04/22 02:38:32;;;;;;;;;;;;;;;;;;5028589;28;19928;-58
2022/04/22 02:46:27;;;;;;;;;;;;;;;;;;5031640;28;20476;-59
2022/04/22 02:48:55;;;;;;;;;;;;;;;;;;5024725;28;19917;-57
2022/04/22 02:51:20;;;;;;;;;;;;;;;;;;5025483;28;20383;-56
2022/04/22 02:53:45;;;;;;;;;;;;;;;;;;5032903;28;19913;-56
2022/04/22 02:56:11;;;;;;;;;;;;;;;;;;5025151;28;19971;-57
2022/04/22 02:58:36;;;;;;;;;;;;;;;;;;5028963;28;20322;-58
2022/04/22 03:01:02;;;;;;;;;;;;;;;;;;5028060;28;20016;-57
2022/04/22 03:03:28;;;;;;;;;;;;;;;;;;5022325;28;19956;-58
2022/04/22 03:05:53;;;;;;;;;;;;;;;;;;5025560;28;19955;-59
2022/04/22 03:08:19;;;;;;;;;;;;;;;;;;5023811;28;20290;-57
2022/04/22 03:10:44;;;;;;;;;;;;;;;;;;5025233;28;19924;-58
2022/04/22 03:13:09;;;;;;;;;;;;;;;;;;5023182;28;19913;-57
2022/04/22 03:15:36;;;;;;;;;;;;;;;;;;5026253;28;19940;-58
2022/04/22 03:18:01;;;;;;;;;;;;;;;;;;5026142;28;20007;-58
2022/04/22 03:20:27;;;;;;;;;;;;;;;;;;5019728;28;20004;-57
2022/04/22 03:22:52;;;;;;;;;;;;;;;;;;5022431;28;19929;-56
2022/04/22 03:25:20;;;;;;;;;;;;;;;;;;5029110;28;20011;-59
2022/04/22 03:27:45;;;;;;;;;;;;;;;;;;5032418;28;19925;-58
2022/04/22 03:30:11;;;;;;;;;;;;;;;;;;5031327;28;19975;-59
2022/04/22 03:32:36;;;;;;;;;;;;;;;;;;5019007;28;19917;-58
2022/04/22 03:35:02;;;;;;;;;;;;;;;;;;5019763;28;19924;-58
2022/04/22 03:37:27;;;;;;;;;;;;;;;;;;5030478;28;19924;-57
2022/04/22 03:39:52;;;;;;;;;;;;;;;;;;5028328;28;19924;-57
2022/04/22 03:42:17;;;;;;;;;;;;;;;;;;5023898;28;20017;-56
2022/04/22 03:44:43;;;;;;;;;;;;;;;;;;5025381;28;19914;-57
2022/04/22 03:47:08;;;;;;;;;;;;;;;;;;5024474;28;19917;-57
2022/04/22 03:49:33;;;;;;;;;;;;;;;;;;5024374;28;19928;-56
2022/04/22 03:51:59;;;;;;;;;;;;;;;;;;5021253;28;19913;-58
2022/04/22 03:54:25;;;;;;;;;;;;;;;;;;5022805;28;20386;-56
2022/04/22 03:59:35;;;;;;;;;;;;;;;;;;5030075;28;19928;-58
2022/04/22 04:02:00;;;;;;;;;;;;;;;;;;5026207;28;19925;-56
2022/04/22 04:04:26;;;;;;;;;;;;;;;;;;5029595;28;19963;-58
2022/04/22 04:06:51;;;;;;;;;;;;;;;;;;5027476;28;19924;-58
2022/04/22 04:17:33;;;;;;;;;;;;;;;;;;5022932;28;20121;-56
2022/04/22 04:25:26;;;;;;;;;;;;;;;;;;5019086;28;19976;-59
2022/04/22 04:27:51;;;;;;;;;;;;;;;;;;5022680;28;19917;-58
2022/04/22 04:30:17;;;;;;;;;;;;;;;;;;5029566;28;19925;-58
2022/04/22 04:32:42;;;;;;;;;;;;;;;;;;5029145;28;19925;-57
2022/04/22 04:35:08;;;;;;;;;;;;;;;;;;5026559;28;19923;-59
2022/04/22 04:37:38;;;;;;;;;;;;;;;;;;5024205;28;19921;-57
2022/04/22 04:40:03;;;;;;;;;;;;;;;;;;5025653;28;20012;-59
2022/04/22 04:42:29;;;;;;;;;;;;;;;;;;5024665;28;20000;-58
2022/04/22 04:44:54;;;;;;;;;;;;;;;;;;5022116;28;19932;-58
2022/04/22 04:47:19;;;;;;;;;;;;;;;;;;5029917;28;19921;-59
2022/04/22 04:49:45;;;;;;;;;;;;;;;;;;5025758;28;20388;-60
2022/04/22 04:52:11;;;;;;;;;;;;;;;;;;5026575;28;19927;-58
2022/04/22 04:54:37;;;;;;;;;;;;;;;;;;5024236;28;20079;-59
2022/04/22 04:57:02;;;;;;;;;;;;;;;;;;5026919;28;19996;-57
2022/04/22 04:59:27;;;;;;;;;;;;;;;;;;5026827;28;20291;-58
2022/04/22 05:01:52;;;;;;;;;;;;;;;;;;5023226;28;19975;-58
2022/04/22 05:04:18;;;;;;;;;;;;;;;;;;5023229;28;20378;-59
2022/04/22 05:06:43;;;;;;;;;;;;;;;;;;5025059;28;19917;-56
2022/04/22 05:09:08;;;;;;;;;;;;;;;;;;5023719;28;20379;-58
2022/04/22 05:11:33;;;;;;;;;;;;;;;;;;5027553;28;19921;-58
2022/04/22 05:13:59;;;;;;;;;;;;;;;;;;5024340;28;19940;-58
2022/04/22 05:16:24;;;;;;;;;;;;;;;;;;5024495;28;20345;-58
2022/04/22 05:18:49;;;;;;;;;;;;;;;;;;5023000;28;20371;-58
2022/04/22 05:21:15;;;;;;;;;;;;;;;;;;5023554;28;19928;-59
2022/04/22 05:23:40;;;;;;;;;;;;;;;;;;5021115;28;20075;-59
2022/04/22 05:26:05;;;;;;;;;;;;;;;;;;5018081;28;20002;-60
2022/04/22 05:28:30;;;;;;;;;;;;;;;;;;5026430;28;19917;-61
2022/04/22 05:33:40;;;;;;;;;;;;;;;;;;5028996;28;19944;-58
2022/04/22 05:36:06;;;;;;;;;;;;;;;;;;5030750;28;19924;-59
2022/04/22 05:38:32;;;;;;;;;;;;;;;;;;5029089;28;19925;-56
2022/04/22 05:40:57;;;;;;;;;;;;;;;;;;5027479;28;19925;-58
2022/04/22 05:43:22;;;;;;;;;;;;;;;;;;5028603;28;19916;-58
2022/04/22 05:45:48;;;;;;;;;;;;;;;;;;5024130;28;20032;-59
2022/04/22 05:48:13;;;;;;;;;;;;;;;;;;5023896;28;19917;-59
2022/04/22 05:50:38;;;;;;;;;;;;;;;;;;5027624;28;20331;-59
2022/04/22 05:53:04;;;;;;;;;;;;;;;;;;5024805;28;19917;-60
2022/04/22 05:55:29;;;;;;;;;;;;;;;;;;5026482;28;19924;-60
2022/04/22 05:57:54;;;;;;;;;;;;;;;;;;5028579;28;19921;-59
2022/04/22 06:00:24;;;;;;;;;;;;;;;;;;5030470;28;19917;-59
2022/04/22 06:02:49;;;;;;;;;;;;;;;;;;5028464;28;19931;-60
2022/04/22 06:05:15;;;;;;;;;;;;;;;;;;5028138;28;19925;-58
2022/04/22 06:07:41;;;;;;;;;;;;;;;;;;5021941;28;19960;-58
2022/04/22 06:12:52;;;;;;;;;;;;;;;;;;5022041;28;19963;-58
2022/04/22 06:15:18;;;;;;;;;;;;;;;;;;5024338;28;19917;-58
2022/04/22 06:17:43;;;;;;;;;;;;;;;;;;5026189;28;19927;-60
2022/04/22 06:20:09;;;;;;;;;;;;;;;;;;5022369;28;19917;-57
2022/04/22 06:22:34;;;;;;;;;;;;;;;;;;5020516;28;19929;-59
2022/04/22 06:24:59;;;;;;;;;;;;;;;;;;5024433;28;20741;-58
2022/04/22 06:27:28;;;;;;;;;;;;;;;;;;5009541;28;20029;-57
2022/04/22 06:29:54;;;;;;;;;;;;;;;;;;5020298;28;19948;-59
2022/04/22 06:32:21;;;;;;;;;;;;;;;;;;5022804;28;19928;-57
2022/04/22 06:34:47;;;;;;;;;;;;;;;;;;5023667;28;19913;-58
2022/04/22 06:37:12;;;;;;;;;;;;;;;;;;5020936;28;20024;-59
2022/04/22 06:47:50;;;;;;;;;;;;;;;;;;5021076;28;20158;-57
2022/04/22 06:50:19;;;;;;;;;;;;;;;;;;5025491;28;19924;-59
2022/04/22 06:52:45;;;;;;;;;;;;;;;;;;5021446;28;19921;-58
2022/04/22 06:55:10;;;;;;;;;;;;;;;;;;5023367;28;19976;-58
2022/04/22 06:57:37;;;;;;;;;;;;;;;;;;5024459;28;19925;-59
2022/04/22 07:00:03;;;;;;;;;;;;;;;;;;5025538;28;19917;-58
2022/04/22 07:02:29;;;;;;;;;;;;;;;;;;5020714;28;19962;-59
2022/04/22 07:04:54;;;;;;;;;;;;;;;;;;5023682;28;19921;-60
2022/04/22 07:07:20;;;;;;;;;;;;;;;;;;5022972;28;19931;-60
2022/04/22 07:09:45;;;;;;;;;;;;;;;;;;5023207;28;19948;-59
2022/04/22 07:12:11;;;;;;;;;;;;;;;;;;5020006;28;20418;-60
2022/04/22 07:14:37;;;;;;;;;;;;;;;;;;5025169;28;19978;-59
2022/04/22 07:17:03;;;;;;;;;;;;;;;;;;5022539;28;20291;-60
2022/04/22 07:19:28;;;;;;;;;;;;;;;;;;5020453;28;20333;-60
2022/04/22 07:21:54;;;;;;;;;;;;;;;;;;5019862;28;19925;-58
2022/04/22 07:24:19;;;;;;;;;;;;;;;;;;5043546;28;19949;-59
2022/04/22 07:26:45;;;;;;;;;;;;;;;;;;5017248;28;20657;-60
2022/04/22 07:29:12;;;;;;;;;;;;;;;;;;5018681;28;19999;-60
2022/04/22 07:31:37;;;;;;;;;;;;;;;;;;5023758;28;19917;-59
2022/04/22 07:34:02;;;;;;;;;;;;;;;;;;5026525;28;20375;-59
2022/04/22 07:36:28;;;;;;;;;;;;;;;;;;5021560;28;19921;-61
2022/04/22 07:38:53;;;;;;;;;;;;;;;;;;5023542;28;20343;-59
2022/04/22 07:41:20;;;;;;;;;;;;;;;;;;5022403;28;19924;-59
2022/04/22 07:46:47;;;;;;;;;;;;;;;;;;5023659;28;19979;-60
2022/04/22 07:49:13;;;;;;;;;;;;;;;;;;5021566;28;19917;-59
2022/04/22 07:51:40;;;;;;;;;;;;;;;;;;5018966;28;19913;-59
2022/04/22 07:54:07;;;;;;;;;;;;;;;;;;5021222;28;20023;-58
2022/04/22 07:56:33;;;;;;;;;;;;;;;;;;5023285;28;19932;-58
2022/04/22 07:58:58;;;;;;;;;;;;;;;;;;5022772;28;20328;-59
2022/04/22 08:01:24;;;;;;;;;;;;;;;;;;5019994;28;20306;-58
2022/04/22 08:03:50;;;;;;;;;;;;;;;;;;5019574;28;19975;-60
2022/04/22 08:06:15;;;;;;;;;;;;;;;;;;5023941;28;19952;-59
2022/04/22 08:08:41;;;;;;;;;;;;;;;;;;5020970;28;20139;-59
2022/04/22 08:11:06;;;;;;;;;;;;;;;;;;5022316;28;19967;-59
2022/04/22 08:13:32;;;;;;;;;;;;;;;;;;5018411;28;20387;-57
2022/04/22 08:15:58;;;;;;;;;;;;;;;;;;5020458;28;20276;-60
2022/04/22 08:18:23;;;;;;;;;;;;;;;;;;5023265;28;19926;-59
2022/04/22 08:20:49;;;;;;;;;;;;;;;;;;5018862;28;19917;-59
2022/04/22 08:23:16;;;;;;;;;;;;;;;;;;5020311;28;19972;-58
2022/04/22 08:25:42;;;;;;;;;;;;;;;;;;5016068;28;19924;-58
2022/04/22 08:28:07;;;;;;;;;;;;;;;;;;5019697;28;19913;-58
2022/04/22 08:30:35;;;;;;;;;;;;;;;;;;5022561;28;19924;-59
2022/04/22 08:33:01;;;;;;;;;;;;;;;;;;5021264;28;20380;-58
2022/04/22 08:35:26;;;;;;;;;;;;;;;;;;5022376;28;20322;-59
2022/04/22 08:37:52;;;;;;;;;;;;;;;;;;5023727;28;19917;-59
2022/04/22 08:40:18;;;;;;;;;;;;;;;;;;5025431;28;19975;-59
2022/04/22 08:42:46;;;;;;;;;;;;;;;;;;5021422;28;20324;-59
2022/04/22 08:45:12;;;;;;;;;;;;;;;;;;5023496;28;20003;-59
2022/04/22 08:50:22;;;;;;;;;;;;;;;;;;5018004;28;20008;-58
2022/04/22 08:53:02;;;;;;;;;;;;;;;;;;5021709;28;19932;-59
2022/04/22 08:55:29;;;;;;;;;;;;;;;;;;5017968;28;19931;-59
2022/04/22 08:57:54;;;;;;;;;;;;;;;;;;5025335;28;20342;-58
2022/04/22 09:00:22;;;;;;;;;;;;;;;;;;5020578;28;19928;-59
2022/04/22 09:02:48;;;;;;;;;;;;;;;;;;5023104;28;20330;-58
2022/04/22 09:05:14;;;;;;;;;;;;;;;;;;5020140;28;19927;-59
2022/04/22 09:07:42;;;;;;;;;;;;;;;;;;5020282;28;20083;-59
2022/04/22 09:10:07;;;;;;;;;;;;;;;;;;5019906;28;19976;-60
2022/04/22 09:12:34;;;;;;;;;;;;;;;;;;5016796;28;19917;-59
2022/04/22 09:15:00;;;;;;;;;;;;;;;;;;5016450;28;19931;-58
2022/04/22 09:17:26;;;;;;;;;;;;;;;;;;5024241;28;19917;-60
2022/04/22 09:19:52;;;;;;;;;;;;;;;;;;5019116;28;20028;-59
2022/04/22 09:22:18;;;;;;;;;;;;;;;;;;5013265;28;20023;-59
2022/04/22 09:24:50;;;;;;;;;;;;;;;;;;5017585;28;20275;-58
2022/04/22 09:27:16;;;;;;;;;;;;;;;;;;5021372;28;20329;-58
2022/04/22 09:29:43;;;;;;;;;;;;;;;;;;5028674;28;19913;-59
2022/04/22 09:32:11;;;;;;;;;;;;;;;;;;5021525;28;20379;-59
2022/04/22 09:34:39;;;;;;;;;;;;;;;;;;5022151;28;19972;-60
2022/04/22 09:43:17;;;;;;;;;;;;;;;;;;5041572;28;19920;-59
2022/04/22 09:45:42;;;;;;;;;;;;;;;;;;5041384;28;19970;-58
2022/04/22 09:48:14;;;;;;;;;;;;;;;;;;5019852;28;19952;-59
2022/04/22 09:50:40;;;;;;;;;;;;;;;;;;5018743;28;19933;-58
2022/04/22 09:53:06;;;;;;;;;;;;;;;;;;5026152;28;19918;-59
2022/04/22 09:55:34;;;;;;;;;;;;;;;;;;5023553;28;19967;-59
2022/04/22 09:58:00;;;;;;;;;;;;;;;;;;5028463;28;19940;-59
2022/04/22 10:00:26;;;;;;;;;;;;;;;;;;5024271;28;20370;-58
2022/04/22 10:02:52;;;;;;;;;;;;;;;;;;5025059;28;20038;-60
2022/04/22 10:05:22;;;;;;;;;;;;;;;;;;5024981;28;20383;-59
2022/04/22 10:07:50;;;;;;;;;;;;;;;;;;5025422;28;20341;-58
2022/04/22 10:10:17;;;;;;;;;;;;;;;;;;5023568;28;19921;-59
2022/04/22 10:12:42;;;;;;;;;;;;;;;;;;5022566;28;19960;-58
2022/04/22 10:15:09;;;;;;;;;;;;;;;;;;5020749;28;19961;-60
2022/04/22 10:17:34;;;;;;;;;;;;;;;;;;5023805;28;19917;-59
2022/04/22 10:20:01;;;;;;;;;;;;;;;;;;5022961;28;20268;-58
2022/04/22 10:22:27;;;;;;;;;;;;;;;;;;5027198;28;20383;-58
2022/04/22 10:24:54;;;;;;;;;;;;;;;;;;5021493;28;20632;-58
2022/04/22 10:27:20;;;;;;;;;;;;;;;;;;5025336;28;20398;-59
2022/04/22 10:29:45;;;;;;;;;;;;;;;;;;5028220;28;19917;-58
2022/04/22 10:32:12;;;;;;;;;;;;;;;;;;5024868;28;19924;-59
2022/04/22 10:34:39;;;;;;;;;;;;;;;;;;5024622;28;20339;-58
2022/04/22 10:37:04;;;;;;;;;;;;;;;;;;5022351;28;20024;-60
2022/04/22 10:39:37;;;;;;;;;;;;;;;;;;5022588;28;20462;-60
2022/04/22 10:42:08;;;;;;;;;;;;;;;;;;5022163;28;19921;-61
2022/04/22 10:47:36;;;;;;;;;;;;;;;;;;5020131;28;19931;-62
2022/04/22 10:50:21;;;;;;;;;;;;;;;;;;5026415;28;20078;-60
2022/04/22 10:53:03;;;;;;;;;;;;;;;;;;5023284;28;20291;-61
2022/04/22 10:55:34;;;;;;;;;;;;;;;;;;5021523;28;20375;-62
2022/04/22 10:58:23;;;;;;;;;;;;;;;;;;5026532;28;20304;-61
2022/04/22 11:00:53;;;;;;;;;;;;;;;;;;5020766;28;19917;-59
2022/04/22 11:03:22;;;;;;;;;;;;;;;;;;5025071;28;20001;-61
2022/04/22 11:05:57;;;;;;;;;;;;;;;;;;5021147;28;19924;-60
2022/04/22 11:08:26;;;;;;;;;;;;;;;;;;5022389;28;19925;-60
2022/04/22 11:10:52;;;;;;;;;;;;;;;;;;5021559;28;20016;-60
2022/04/22 11:13:26;;;;;;;;;;;;;;;;;;5019619;28;20067;-61
2022/04/22 11:15:52;;;;;;;;;;;;;;;;;;5020432;28;19978;-60
2022/04/22 11:18:17;;;;;;;;;;;;;;;;;;5015528;28;19917;-61
2022/04/22 11:21:06;;;;;;;;;;;;;;;;;;5020100;28;19971;-60
2022/04/22 11:23:40;;;;;;;;;;;;;;;;;;5017814;28;20337;-61
2022/04/22 11:26:06;;;;;;;;;;;;;;;;;;5019268;28;19917;-61
2022/04/22 11:28:38;;;;;;;;;;;;;;;;;;5024035;28;19921;-60
2022/04/22 11:31:08;;;;;;;;;;;;;;;;;;5025707;28;19924;-62
2022/04/22 11:33:45;;;;;;;;;;;;;;;;;;5023029;28;20145;-59
2022/04/22 11:36:11;;;;;;;;;;;;;;;;;;5020583;28;19945;-61
2022/04/22 11:38:46;;;;;;;;;;;;;;;;;;5022619;28;19971;-63
2022/04/22 11:41:12;;;;;;;;;;;;;;;;;;5020632;28;19943;-61
2022/04/22 11:43:37;;;;;;;;;;;;;;;;;;5023836;28;20449;-61
2022/04/22 11:46:03;;;;;;;;;;;;;;;;;;5024271;28;19921;-61
2022/04/22 11:48:28;;;;;;;;;;;;;;;;;;5019342;28;20422;-61
2022/04/22 11:50:56;;;;;;;;;;;;;;;;;;5024566;28;20099;-61
2022/04/22 11:53:34;;;;;;;;;;;;;;;;;;5025254;28;19917;-61
2022/04/22 11:56:04;;;;;;;;;;;;;;;;;;5023594;28;20366;-61
2022/04/22 11:58:29;;;;;;;;;;;;;;;;;;5026849;28;20409;-60
2022/04/22 12:06:23;;;;;;;;;;;;;;;;;;5020865;28;19974;-62
2022/04/22 12:09:00;;;;;;;;;;;;;;;;;;5024925;28;19920;-60
2022/04/22 12:11:26;;;;;;;;;;;;;;;;;;5022150;28;20367;-61
2022/04/22 12:13:51;;;;;;;;;;;;;;;;;;5022509;28;19917;-61
2022/04/22 12:16:25;;;;;;;;;;;;;;;;;;5015744;28;20256;-59
2022/04/22 12:18:51;;;;;;;;;;;;;;;;;;5017639;28;19924;-62
2022/04/22 12:21:17;;;;;;;;;;;;;;;;;;5014785;28;19921;-61
2022/04/22 12:23:44;;;;;;;;;;;;;;;;;;5046164;28;20043;-62
2022/04/22 12:26:14;;;;;;;;;;;;;;;;;;5018231;28;19917;-62
2022/04/22 12:28:58;;;;;;;;;;;;;;;;;;5023201;28;19921;-60
2022/04/22 12:31:24;;;;;;;;;;;;;;;;;;5015184;28;20375;-62
2022/04/22 12:34:05;;;;;;;;;;;;;;;;;;5022676;28;19917;-62
2022/04/22 12:36:40;;;;;;;;;;;;;;;;;;5023121;28;20031;-62
2022/04/22 12:39:06;;;;;;;;;;;;;;;;;;5021360;28;20024;-63
2022/04/22 12:41:41;;;;;;;;;;;;;;;;;;5015744;28;20030;-62
2022/04/22 12:44:10;;;;;;;;;;;;;;;;;;5022068;28;19960;-62
2022/04/22 12:52:11;;;;;;;;;;;;;;;;;;5021818;28;19978;-62
2022/04/22 12:54:37;;;;;;;;;;;;;;;;;;5025302;28;20015;-61
2022/04/22 12:57:05;;;;;;;;;;;;;;;;;;5023246;28;20402;-62
2022/04/22 12:59:44;;;;;;;;;;;;;;;;;;5024922;28;19921;-60
2022/04/22 13:02:10;;;;;;;;;;;;;;;;;;5018899;28;20434;-62
2022/04/22 13:04:48;;;;;;;;;;;;;;;;;;5017905;28;20029;-61
2022/04/22 13:07:14;;;;;;;;;;;;;;;;;;5019008;28;20020;-63
2022/04/22 13:09:39;;;;;;;;;;;;;;;;;;5020097;28;20694;-62
2022/04/22 13:12:04;;;;;;;;;;;;;;;;;;5018724;28;20291;-61
2022/04/22 13:14:30;;;;;;;;;;;;;;;;;;5023544;28;19937;-61
2022/04/22 13:16:55;;;;;;;;;;;;;;;;;;5019364;28;19917;-63
2022/04/22 13:19:20;;;;;;;;;;;;;;;;;;5023492;28;19971;-63
2022/04/22 13:21:46;;;;;;;;;;;;;;;;;;5018898;28;19917;-61
2022/04/22 13:24:11;;;;;;;;;;;;;;;;;;5021503;28;20015;-60
2022/04/22 13:26:37;;;;;;;;;;;;;;;;;;5020090;28;19928;-60
2022/04/22 13:29:04;;;;;;;;;;;;;;;;;;5022451;28;20019;-61
2022/04/22 13:31:29;;;;;;;;;;;;;;;;;;5022986;28;20000;-60
2022/04/22 13:33:54;;;;;;;;;;;;;;;;;;5025762;28;20028;-60
2022/04/22 13:36:19;;;;;;;;;;;;;;;;;;5024094;28;19927;-62
2022/04/22 13:38:45;;;;;;;;;;;;;;;;;;5021874;28;19924;-60
2022/04/22 13:41:10;;;;;;;;;;;;;;;;;;5023775;28;19963;-61
2022/04/22 13:43:36;;;;;;;;;;;;;;;;;;5026011;28;20310;-63
2022/04/22 13:54:14;;;;;;;;;;;;;;;;;;5023250;28;19929;-62
2022/04/22 13:56:40;;;;;;;;;;;;;;;;;;5024388;28;19916;-60
2022/04/22 13:59:05;;;;;;;;;;;;;;;;;;5026349;28;20047;-61
2022/04/22 14:01:30;;;;;;;;;;;;;;;;;;5023128;28;20099;-62
2022/04/22 14:03:56;;;;;;;;;;;;;;;;;;5023846;28;19920;-60
2022/04/22 14:06:21;;;;;;;;;;;;;;;;;;5047039;28;19928;-61
2022/04/22 14:08:46;;;;;;;;;;;;;;;;;;5026474;28;19953;-61
2022/04/22 14:11:11;;;;;;;;;;;;;;;;;;5023576;28;19917;-62
2022/04/22 14:13:37;;;;;;;;;;;;;;;;;;5021463;28;19992;-60
2022/04/22 14:16:02;;;;;;;;;;;;;;;;;;5018666;28;19917;-60
2022/04/22 14:18:31;;;;;;;;;;;;;;;;;;5022550;28;19928;-59
2022/04/22 14:20:57;;;;;;;;;;;;;;;;;;5022446;28;19987;-59
2022/04/22 14:23:23;;;;;;;;;;;;;;;;;;5026316;28;20020;-59
2022/04/22 14:25:48;;;;;;;;;;;;;;;;;;5026647;28;19960;-60
2022/04/22 14:28:13;;;;;;;;;;;;;;;;;;5028048;28;19917;-59
2022/04/22 14:30:39;;;;;;;;;;;;;;;;;;5028013;28;20221;-59
2022/04/22 14:33:04;;;;;;;;;;;;;;;;;;5023006;28;19918;-60
2022/04/22 14:35:29;;;;;;;;;;;;;;;;;;5020749;28;19943;-58
2022/04/22 14:37:57;;;;;;;;;;;;;;;;;;5026322;28;19971;-60
2022/04/22 14:40:22;;;;;;;;;;;;;;;;;;5026156;28;19913;-60
2022/04/22 14:42:47;;;;;;;;;;;;;;;;;;5022388;28;19932;-59
2022/04/22 14:45:13;;;;;;;;;;;;;;;;;;5025143;28;19933;-58
2022/04/22 14:47:38;;;;;;;;;;;;;;;;;;5025590;28;20342;-61
2022/04/22 14:50:04;;;;;;;;;;;;;;;;;;5029772;28;20000;-60
2022/04/22 14:52:29;;;;;;;;;;;;;;;;;;5024290;28;19927;-59
2022/04/22 14:54:54;;;;;;;;;;;;;;;;;;5023247;28;19921;-60
2022/04/22 14:57:19;;;;;;;;;;;;;;;;;;5025242;28;19922;-60
2022/04/22 14:59:45;;;;;;;;;;;;;;;;;;5029672;28;20366;-62
2022/04/22 15:02:11;;;;;;;;;;;;;;;;;;5027048;28;19921;-59
2022/04/22 15:04:36;;;;;;;;;;;;;;;;;;5020159;28;19928;-60
2022/04/22 15:07:02;;;;;;;;;;;;;;;;;;5019200;28;20000;-59
2022/04/22 15:09:27;;;;;;;;;;;;;;;;;;5018368;28;19918;-60
2022/04/22 15:11:53;;;;;;;;;;;;;;;;;;5018473;28;20428;-60
2022/04/22 15:14:18;;;;;;;;;;;;;;;;;;5021661;28;20349;-62
2022/04/22 15:16:43;;;;;;;;;;;;;;;;;;5017212;28;19924;-62
2022/04/22 15:24:37;;;;;;;;;;;;;;;;;;5023371;28;20332;-60
2022/04/22 15:27:04;;;;;;;;;;;;;;;;;;5026957;28;19917;-60
2022/04/22 15:29:29;;;;;;;;;;;;;;;;;;5026249;28;20085;-62
2022/04/22 15:31:55;;;;;;;;;;;;;;;;;;5022745;28;19995;-61
2022/04/22 15:34:20;;;;;;;;;;;;;;;;;;5024889;28;19917;-61
2022/04/22 15:36:46;;;;;;;;;;;;;;;;;;5023761;28;20018;-61
2022/04/22 15:39:12;;;;;;;;;;;;;;;;;;5024652;28;19917;-60
2022/04/22 15:41:38;;;;;;;;;;;;;;;;;;5021501;28;20015;-61
2022/04/22 15:44:07;;;;;;;;;;;;;;;;;;5021125;28;20168;-61
2022/04/22 15:46:32;;;;;;;;;;;;;;;;;;5023496;28;20327;-61
2022/04/22 15:48:57;;;;;;;;;;;;;;;;;;5025436;28;19936;-61
2022/04/22 15:51:23;;;;;;;;;;;;;;;;;;5024009;28;20318;-62
2022/04/22 15:53:50;;;;;;;;;;;;;;;;;;5023898;28;19920;-60
2022/04/22 15:56:15;;;;;;;;;;;;;;;;;;5019782;28;19940;-61
2022/04/22 15:58:45;;;;;;;;;;;;;;;;;;5023927;28;19925;-60
2022/04/22 16:01:10;;;;;;;;;;;;;;;;;;5022136;28;19919;-61
2022/04/22 16:03:36;;;;;;;;;;;;;;;;;;5020142;28;19917;-59
2022/04/22 16:06:02;;;;;;;;;;;;;;;;;;5017725;28;19913;-62
2022/04/22 16:08:28;;;;;;;;;;;;;;;;;;5023379;28;19917;-60
2022/04/22 16:10:53;;;;;;;;;;;;;;;;;;5025798;28;20331;-61
2022/04/22 16:16:03;;;;;;;;;;;;;;;;;;5014675;28;20414;-62
2022/04/22 16:18:29;;;;;;;;;;;;;;;;;;5015899;28;19929;-60
2022/04/22 16:20:54;;;;;;;;;;;;;;;;;;5025502;28;19917;-61
2022/04/22 16:23:21;;;;;;;;;;;;;;;;;;5037683;28;20267;-60
2022/04/22 16:25:47;;;;;;;;;;;;;;;;;;5024457;28;19917;-61
2022/04/22 16:28:14;;;;;;;;;;;;;;;;;;5025332;28;20306;-59
2022/04/22 16:30:41;;;;;;;;;;;;;;;;;;5025043;28;19931;-62
2022/04/22 16:33:06;;;;;;;;;;;;;;;;;;5024413;28;19924;-59
2022/04/22 16:35:33;;;;;;;;;;;;;;;;;;5030592;28;19917;-60
2022/04/22 16:37:58;;;;;;;;;;;;;;;;;;5026068;28;19975;-61
2022/04/22 16:40:24;;;;;;;;;;;;;;;;;;5023869;28;19913;-59
2022/04/22 16:42:51;;;;;;;;;;;;;;;;;;5021998;28;19928;-59
2022/04/22 16:45:16;;;;;;;;;;;;;;;;;;5023401;28;19924;-61
2022/04/22 16:47:42;;;;;;;;;;;;;;;;;;5024948;28;19917;-60
2022/04/22 16:50:08;;;;;;;;;;;;;;;;;;5024922;28;20489;-61
2022/04/22 16:52:34;;;;;;;;;;;;;;;;;;5025154;28;19917;-59
2022/04/22 16:54:59;;;;;;;;;;;;;;;;;;5022085;28;19936;-60
2022/04/22 16:57:24;;;;;;;;;;;;;;;;;;5019820;28;19921;-61
2022/04/22 16:59:50;;;;;;;;;;;;;;;;;;5025039;28;19931;-59
2022/04/22 17:02:17;;;;;;;;;;;;;;;;;;5020036;28;19975;-62
2022/04/22 17:04:43;;;;;;;;;;;;;;;;;;5018261;28;19914;-59
2022/04/22 17:07:09;;;;;;;;;;;;;;;;;;5027784;28;19917;-61
2022/04/22 17:09:35;;;;;;;;;;;;;;;;;;5025633;28;20297;-61
2022/04/22 17:12:01;;;;;;;;;;;;;;;;;;5024714;28;19917;-61
2022/04/22 17:22:41;;;;;;;;;;;;;;;;;;5026291;28;20401;-62
2022/04/22 17:25:10;;;;;;;;;;;;;;;;;;5028883;28;19999;-60
2022/04/22 17:27:37;;;;;;;;;;;;;;;;;;5027560;28;20081;-61
2022/04/22 17:30:02;;;;;;;;;;;;;;;;;;5024121;28;20371;-61
2022/04/22 17:32:27;;;;;;;;;;;;;;;;;;5021818;28;19923;-60
2022/04/22 17:34:53;;;;;;;;;;;;;;;;;;5025734;28;19925;-59
2022/04/22 17:37:19;;;;;;;;;;;;;;;;;;5027400;28;19924;-61
2022/04/22 17:39:45;;;;;;;;;;;;;;;;;;5024078;28;20701;-61
2022/04/22 17:42:12;;;;;;;;;;;;;;;;;;5021490;28;19921;-60
2022/04/22 17:44:37;;;;;;;;;;;;;;;;;;5024855;28;20352;-60
2022/04/22 17:47:03;;;;;;;;;;;;;;;;;;5026590;28;20008;-61
2022/04/22 17:49:28;;;;;;;;;;;;;;;;;;5029016;28;19917;-60
2022/04/22 17:51:54;;;;;;;;;;;;;;;;;;5025745;28;19917;-60
2022/04/22 17:54:20;;;;;;;;;;;;;;;;;;5025500;28;19956;-59
2022/04/22 17:56:47;;;;;;;;;;;;;;;;;;5024541;28;19921;-59
2022/04/22 17:59:13;;;;;;;;;;;;;;;;;;5022663;28;19921;-60
2022/04/22 18:01:38;;;;;;;;;;;;;;;;;;5027863;28;20252;-62
2022/04/22 18:04:08;;;;;;;;;;;;;;;;;;5025712;28;19917;-60
2022/04/22 18:06:36;;;;;;;;;;;;;;;;;;5021089;28;20441;-61
2022/04/22 18:09:02;;;;;;;;;;;;;;;;;;5027469;28;19924;-59
2022/04/22 18:11:31;;;;;;;;;;;;;;;;;;5018042;28;19917;-61
2022/04/22 18:13:57;;;;;;;;;;;;;;;;;;5017349;28;20409;-60